Time;durP1;ratioP1;P1;durP2;ratioP2;P2;SDS_P1;SDS_P2;PMS_P1;PMS_P2;Temp;Humidity;BMP_temperature;BMP_pressure;BME280_temperature;BME280_humidity;BME280_pressure;Samples;Min_cycle;Max_cycle;Signal;HPM_P1;HPM_P2
2022/02/24 00:02:04;;;;;;;2.57;1.70;;;3.70;99.90;;;;;;4992564;28;20185;-68
2022/02/24 00:04:30;;;;;;;4.87;2.20;;;3.70;99.90;;;;;;4992088;28;20228;-68
2022/02/24 00:06:56;;;;;;;1.57;1.47;;;3.60;99.90;;;;;;4992293;28;20385;-67
2022/02/24 00:09:21;;;;;;;1.40;1.20;;;3.60;99.90;;;;;;4991995;28;20418;-67
2022/02/24 00:11:47;;;;;;;2.60;2.30;;;3.60;99.90;;;;;;4992084;28;20659;-68
2022/02/24 00:14:12;;;;;;;2.63;2.47;;;3.60;99.90;;;;;;4992203;28;20212;-68
2022/02/24 00:16:38;;;;;;;4.33;1.60;;;3.50;99.90;;;;;;4992148;28;20172;-68
2022/02/24 00:19:03;;;;;;;3.23;1.77;;;3.50;99.90;;;;;;4992143;28;20211;-68
2022/02/24 00:21:29;;;;;;;2.20;1.97;;;3.40;99.90;;;;;;4992255;28;20360;-68
2022/02/24 00:23:54;;;;;;;2.13;1.80;;;3.40;99.90;;;;;;4992101;28;20177;-68
2022/02/24 00:26:20;;;;;;;2.47;1.83;;;3.40;99.90;;;;;;4991830;28;20193;-68
2022/02/24 00:28:45;;;;;;;2.27;2.07;;;3.30;99.90;;;;;;4992135;28;20224;-68
2022/02/24 00:31:11;;;;;;;2.30;2.07;;;3.40;99.90;;;;;;4991792;28;20196;-68
2022/02/24 00:33:38;;;;;;;2.20;1.73;;;3.30;99.90;;;;;;4992026;28;20193;-68
2022/02/24 00:36:04;;;;;;;1.90;1.30;;;3.30;99.90;;;;;;4991790;28;20205;-68
2022/02/24 00:38:30;;;;;;;1.67;1.57;;;3.30;99.90;;;;;;5016626;22;20412;-69
2022/02/24 00:40:55;;;;;;;2.47;1.87;;;3.20;99.90;;;;;;4990488;28;20558;-71
2022/02/24 00:43:21;;;;;;;5.93;2.83;;;3.20;99.90;;;;;;4992249;28;20187;-71
2022/02/24 00:45:46;;;;;;;1.87;1.50;;;3.20;99.90;;;;;;4992354;28;20263;-70
2022/02/24 00:48:12;;;;;;;2.07;1.50;;;3.20;99.90;;;;;;4993519;28;20181;-70
2022/02/24 00:50:38;;;;;;;3.33;1.70;;;3.10;99.90;;;;;;4996524;28;20259;-70
2022/02/24 00:53:04;;;;;;;1.90;1.73;;;3.10;99.90;;;;;;4997875;28;20181;-71
2022/02/24 00:55:29;;;;;;;10.70;2.50;;;3.10;99.90;;;;;;4997165;28;20472;-70
2022/02/24 00:57:55;;;;;;;2.00;1.43;;;3.00;99.90;;;;;;4996205;28;20898;-70
2022/02/24 01:00:21;;;;;;;2.40;2.20;;;3.00;99.90;;;;;;4995901;28;20219;-70
2022/02/24 01:02:47;;;;;;;1.60;1.50;;;3.00;99.90;;;;;;4996160;28;20181;-71
2022/02/24 01:05:12;;;;;;;2.10;1.70;;;3.00;99.90;;;;;;4995884;28;20832;-71
2022/02/24 01:07:38;;;;;;;1.90;1.70;;;2.90;99.90;;;;;;4995949;28;20208;-71
2022/02/24 01:10:05;;;;;;;7.20;2.20;;;2.90;99.90;;;;;;4995694;28;20259;-71
2022/02/24 01:12:31;;;;;;;1.87;1.77;;;2.90;99.90;;;;;;4978539;28;20288;-71
2022/02/24 01:14:58;;;;;;;2.70;2.50;;;2.80;99.90;;;;;;4978324;28;20511;-71
2022/02/24 01:17:23;;;;;;;6.10;1.90;;;2.80;99.90;;;;;;4996087;28;20654;-71
2022/02/24 01:19:49;;;;;;;2.00;1.53;;;2.90;99.90;;;;;;4995876;28;20424;-71
2022/02/24 01:22:16;;;;;;;1.83;1.27;;;2.80;99.90;;;;;;4995642;28;20625;-71
2022/02/24 01:24:42;;;;;;;1.50;1.40;;;2.80;99.90;;;;;;4995614;28;20169;-71
2022/02/24 01:27:07;;;;;;;4.60;1.60;;;2.80;99.90;;;;;;4995754;28;20420;-71
2022/02/24 01:29:33;;;;;;;1.60;1.50;;;2.80;99.90;;;;;;4995527;28;20201;-71
2022/02/24 01:31:58;;;;;;;2.53;1.73;;;2.80;99.90;;;;;;4995265;28;20205;-71
2022/02/24 01:34:27;;;;;;;2.20;1.87;;;2.80;99.90;;;;;;4977766;28;20986;-71
2022/02/24 01:36:53;;;;;;;2.57;2.00;;;2.80;99.90;;;;;;4995362;28;20220;-71
2022/02/24 01:39:18;;;;;;;2.00;1.77;;;2.80;99.90;;;;;;4994965;28;20451;-69
2022/02/24 01:41:43;;;;;;;4.07;1.90;;;2.90;99.90;;;;;;4977523;28;20494;-69
2022/02/24 01:44:11;;;;;;;2.50;1.70;;;2.90;99.90;;;;;;4995001;28;20184;-72
2022/02/24 01:46:37;;;;;;;3.53;1.90;;;2.80;99.90;;;;;;4996634;28;20632;-70
2022/02/24 01:49:06;;;;;;;4.40;1.83;;;2.80;99.90;;;;;;5003519;28;20467;-70
2022/02/24 01:51:33;;;;;;;1.53;1.40;;;2.80;99.90;;;;;;5002906;28;20200;-70
2022/02/24 01:53:59;;;;;;;3.90;2.80;;;2.80;99.90;;;;;;5006025;28;20470;-70
2022/02/24 01:56:25;;;;;;;1.87;1.77;;;2.70;99.90;;;;;;5002453;28;20503;-71
2022/02/24 01:58:50;;;;;;;1.80;1.60;;;2.60;99.90;;;;;;4994528;28;20204;-71
2022/02/24 02:01:15;;;;;;;3.87;2.27;;;2.60;99.90;;;;;;4994904;28;20405;-71
2022/02/24 02:03:41;;;;;;;4.47;2.47;;;2.60;99.90;;;;;;4994693;28;20177;-71
2022/02/24 02:06:07;;;;;;;3.70;1.83;;;2.60;99.90;;;;;;4994663;28;20181;-71
2022/02/24 02:08:33;;;;;;;8.10;2.20;;;2.60;99.90;;;;;;4994640;28;20416;-71
2022/02/24 02:10:59;;;;;;;2.10;2.00;;;2.50;99.90;;;;;;4994510;28;20494;-71
2022/02/24 02:13:24;;;;;;;2.33;1.93;;;2.50;99.90;;;;;;4994471;28;20412;-70
2022/02/24 02:15:53;;;;;;;1.77;1.67;;;2.50;99.90;;;;;;4994599;28;20624;-71
2022/02/24 02:18:19;;;;;;;4.73;1.93;;;2.50;99.90;;;;;;4994668;28;20651;-70
2022/02/24 02:20:45;;;;;;;3.37;3.07;;;2.50;99.90;;;;;;4994590;28;20810;-70
2022/02/24 02:23:11;;;;;;;2.17;1.97;;;2.40;99.90;;;;;;4993393;28;20483;-70
2022/02/24 02:25:37;;;;;;;4.10;2.50;;;2.50;99.90;;;;;;4994674;28;20407;-72
2022/02/24 02:28:03;;;;;;;1.97;1.83;;;2.50;99.90;;;;;;4995309;28;20296;-71
2022/02/24 02:30:29;;;;;;;5.17;1.77;;;2.40;99.90;;;;;;4994993;28;20691;-71
2022/02/24 02:32:54;;;;;;;13.53;3.27;;;2.40;99.90;;;;;;4994556;28;20452;-71
2022/02/24 02:35:20;;;;;;;4.07;2.80;;;2.40;99.90;;;;;;4994661;28;20412;-71
2022/02/24 02:37:46;;;;;;;5.10;1.83;;;2.50;99.90;;;;;;4994630;28;20173;-70
2022/02/24 02:40:12;;;;;;;2.00;1.90;;;2.40;99.90;;;;;;4994741;28;20212;-70
2022/02/24 02:42:38;;;;;;;6.57;2.37;;;2.40;99.90;;;;;;4995490;28;20245;-70
2022/02/24 02:45:05;;;;;;;2.30;1.43;;;2.50;99.90;;;;;;4994144;28;20499;-70
2022/02/24 02:47:30;;;;;;;1.10;1.10;;;2.50;99.90;;;;;;4993985;28;20599;-71
2022/02/24 02:49:56;;;;;;;3.73;1.73;;;2.50;99.90;;;;;;4993828;28;20552;-71
2022/02/24 02:52:22;;;;;;;4.50;1.60;;;2.50;99.90;;;;;;4976118;28;20200;-71
2022/02/24 02:54:53;;;;;;;1.30;1.20;;;2.60;99.90;;;;;;4993977;28;20169;-71
2022/02/24 02:57:19;;;;;;;1.73;1.63;;;2.50;99.90;;;;;;4993877;28;20503;-71
2022/02/24 02:59:44;;;;;;;3.80;2.33;;;2.50;99.90;;;;;;4993651;28;20464;-71
2022/02/24 03:02:10;;;;;;;2.53;1.80;;;2.60;99.90;;;;;;4993776;28;20233;-71
2022/02/24 03:04:35;;;;;;;2.30;1.73;;;2.60;99.90;;;;;;4993768;28;20165;-71
2022/02/24 03:07:01;;;;;;;2.17;1.97;;;2.60;99.90;;;;;;4994358;28;20968;-71
2022/02/24 03:09:26;;;;;;;1.53;1.43;;;2.60;99.90;;;;;;4994183;28;20598;-71
2022/02/24 03:11:52;;;;;;;4.10;2.43;;;2.60;99.90;;;;;;4993762;28;20188;-71
2022/02/24 03:14:17;;;;;;;2.23;1.97;;;2.60;99.90;;;;;;4993934;28;20173;-71
2022/02/24 03:16:43;;;;;;;1.40;1.30;;;2.60;99.90;;;;;;4993545;28;20161;-71
2022/02/24 03:19:11;;;;;;;1.30;1.20;;;2.60;99.90;;;;;;4993264;28;20574;-71
2022/02/24 03:21:36;;;;;;;3.30;1.63;;;2.60;99.90;;;;;;4993506;28;20607;-71
2022/02/24 03:24:02;;;;;;;3.63;1.83;;;2.50;99.90;;;;;;4993411;28;20462;-71
2022/02/24 03:26:27;;;;;;;1.37;1.27;;;2.60;99.90;;;;;;4993217;28;20180;-71
2022/02/24 03:28:53;;;;;;;3.97;1.93;;;2.60;99.90;;;;;;4993012;28;20201;-71
2022/02/24 03:31:18;;;;;;;2.60;1.63;;;2.60;99.90;;;;;;4993085;28;20201;-71
2022/02/24 03:33:44;;;;;;;3.23;2.10;;;2.60;99.90;;;;;;4993247;28;20188;-71
2022/02/24 03:36:10;;;;;;;5.13;3.10;;;2.60;99.90;;;;;;4993063;28;20168;-71
2022/02/24 03:38:36;;;;;;;1.40;1.30;;;2.60;99.90;;;;;;4992948;28;20169;-71
2022/02/24 03:41:02;;;;;;;2.40;1.47;;;2.60;99.90;;;;;;4993200;28;20431;-71
2022/02/24 03:43:27;;;;;;;5.97;2.87;;;2.60;99.90;;;;;;4992974;28;20183;-71
2022/02/24 03:45:53;;;;;;;2.10;1.30;;;2.60;99.90;;;;;;4992876;28;20537;-71
2022/02/24 03:48:18;;;;;;;1.13;1.03;;;2.50;99.90;;;;;;4992917;28;20175;-71
2022/02/24 03:50:43;;;;;;;2.20;1.27;;;2.50;99.90;;;;;;4992829;28;20667;-71
2022/02/24 03:53:09;;;;;;;3.73;1.77;;;2.60;99.90;;;;;;4992950;28;20184;-71
2022/02/24 03:55:34;;;;;;;2.40;1.87;;;2.60;99.90;;;;;;4992782;28;20207;-71
2022/02/24 03:58:00;;;;;;;3.57;1.97;;;2.50;99.90;;;;;;4992797;28;20161;-71
2022/02/24 04:00:25;;;;;;;1.80;1.70;;;2.60;99.90;;;;;;4992667;28;20212;-71
2022/02/24 04:02:51;;;;;;;5.87;2.67;;;2.60;99.90;;;;;;4992674;28;20168;-71
2022/02/24 04:05:16;;;;;;;1.70;1.60;;;2.60;99.90;;;;;;4992595;28;20254;-71
2022/02/24 04:07:42;;;;;;;2.40;2.23;;;2.60;99.90;;;;;;4992771;28;20675;-70
2022/02/24 04:10:08;;;;;;;2.07;1.87;;;2.60;99.90;;;;;;4992626;28;20189;-70
2022/02/24 04:12:34;;;;;;;1.00;1.00;;;2.60;99.90;;;;;;4992656;28;20208;-70
2022/02/24 04:14:59;;;;;;;1.33;1.23;;;2.70;99.90;;;;;;4993041;28;20405;-70
2022/02/24 04:17:25;;;;;;;1.63;1.20;;;2.70;99.90;;;;;;4992886;28;20161;-70
2022/02/24 04:19:50;;;;;;;1.47;1.37;;;2.70;99.90;;;;;;4992728;28;20271;-70
2022/02/24 04:22:16;;;;;;;1.30;1.20;;;2.70;99.90;;;;;;4992443;28;20191;-71
2022/02/24 04:24:41;;;;;;;2.97;2.00;;;2.70;99.90;;;;;;4992797;28;20207;-70
2022/02/24 04:27:06;;;;;;;1.70;1.60;;;2.70;99.90;;;;;;4995014;28;20169;-70
2022/02/24 04:29:32;;;;;;;1.30;1.20;;;2.70;99.90;;;;;;4996113;28;20608;-69
2022/02/24 04:31:58;;;;;;;2.30;1.43;;;2.70;99.90;;;;;;4993873;28;20228;-70
2022/02/24 04:34:24;;;;;;;1.70;1.60;;;2.70;99.90;;;;;;4974760;28;20415;-70
2022/02/24 04:36:49;;;;;;;2.77;1.67;;;2.80;99.90;;;;;;4992378;28;20256;-72
2022/02/24 04:39:15;;;;;;;2.53;2.03;;;2.80;99.90;;;;;;4992362;28;20210;-70
2022/02/24 04:41:40;;;;;;;2.00;1.37;;;2.70;99.90;;;;;;4992229;28;20702;-71
2022/02/24 04:44:06;;;;;;;1.80;1.70;;;2.80;99.90;;;;;;4992694;28;20187;-72
2022/02/24 04:46:31;;;;;;;1.40;1.30;;;2.80;99.90;;;;;;4992429;28;20172;-69
2022/02/24 04:48:58;;;;;;;1.40;1.30;;;2.80;99.90;;;;;;4992434;28;20193;-71
2022/02/24 04:51:23;;;;;;;2.40;1.40;;;2.80;99.90;;;;;;4992929;28;20611;-71
2022/02/24 04:53:49;;;;;;;1.83;1.73;;;2.90;99.90;;;;;;4992856;28;20500;-71
2022/02/24 04:56:14;;;;;;;2.93;1.80;;;2.90;99.90;;;;;;4992980;28;20684;-72
2022/02/24 04:58:40;;;;;;;1.27;1.17;;;2.80;99.90;;;;;;4992198;28;20188;-71
2022/02/24 05:01:05;;;;;;;1.10;1.00;;;2.90;99.90;;;;;;4974918;28;20208;-69
2022/02/24 05:03:31;;;;;;;4.10;1.50;;;2.90;99.90;;;;;;4974486;28;20173;-70
2022/02/24 05:05:56;;;;;;;1.47;1.37;;;2.90;99.90;;;;;;4992066;28;20161;-70
2022/02/24 05:08:22;;;;;;;5.10;1.10;;;2.90;99.90;;;;;;4992049;28;20252;-71
2022/02/24 05:10:47;;;;;;;1.40;1.30;;;2.80;99.90;;;;;;4991909;28;20189;-70
2022/02/24 05:13:13;;;;;;;1.83;1.57;;;2.90;99.90;;;;;;4992016;28;20172;-70
2022/02/24 05:15:38;;;;;;;1.90;1.80;;;2.90;99.90;;;;;;4991875;28;20181;-70
2022/02/24 05:18:04;;;;;;;3.23;2.87;;;2.90;99.90;;;;;;5002545;28;20174;-70
2022/02/24 05:20:29;;;;;;;1.80;1.70;;;2.90;99.90;;;;;;4996901;28;20217;-70
2022/02/24 05:22:55;;;;;;;2.30;1.67;;;2.90;99.90;;;;;;4992060;28;20177;-70
2022/02/24 05:25:20;;;;;;;1.27;1.17;;;2.90;99.90;;;;;;4992250;28;20598;-70
2022/02/24 05:27:46;;;;;;;1.67;1.57;;;3.00;99.90;;;;;;4992174;28;20267;-70
2022/02/24 05:30:14;;;;;;;4.03;1.73;;;3.00;99.90;;;;;;4991882;28;20686;-70
2022/02/24 05:32:40;;;;;;;9.43;2.70;;;3.00;99.90;;;;;;4991829;28;20201;-70
2022/02/24 05:35:06;;;;;;;1.10;1.00;;;2.90;99.90;;;;;;4994048;28;20452;-71
2022/02/24 05:37:32;;;;;;;6.63;1.73;;;2.90;99.90;;;;;;4996148;28;20412;-72
2022/02/24 05:39:58;;;;;;;5.50;3.90;;;2.90;99.90;;;;;;4996158;28;20493;-72
2022/02/24 05:42:24;;;;;;;1.50;1.20;;;2.90;99.90;;;;;;4995446;28;20420;-70
2022/02/24 05:44:50;;;;;;;1.80;1.70;;;2.90;99.90;;;;;;4995376;28;20178;-69
2022/02/24 05:47:17;;;;;;;1.50;1.40;;;3.00;99.90;;;;;;4977978;28;20169;-71
2022/02/24 05:49:43;;;;;;;2.70;1.30;;;3.00;99.90;;;;;;4996258;28;20486;-71
2022/02/24 05:52:09;;;;;;;5.20;2.27;;;3.00;99.90;;;;;;4978575;28;20467;-70
2022/02/24 05:54:34;;;;;;;1.87;1.77;;;3.00;99.90;;;;;;4994938;28;20484;-71
2022/02/24 05:57:00;;;;;;;3.53;1.77;;;3.10;99.90;;;;;;4995110;28;20177;-69
2022/02/24 05:59:25;;;;;;;3.00;2.07;;;3.20;99.90;;;;;;4994946;28;20198;-69
2022/02/24 06:01:51;;;;;;;1.20;1.10;;;3.20;99.90;;;;;;4994807;28;20173;-69
2022/02/24 06:04:17;;;;;;;10.93;2.20;;;3.30;99.90;;;;;;4994871;28;20264;-70
2022/02/24 06:06:43;;;;;;;1.57;1.37;;;3.30;99.90;;;;;;4995140;28;20161;-71
2022/02/24 06:09:09;;;;;;;1.60;1.30;;;3.40;99.90;;;;;;4994973;28;20515;-71
2022/02/24 06:11:34;;;;;;;2.53;2.07;;;3.40;99.90;;;;;;4994710;28;20239;-70
2022/02/24 06:14:00;;;;;;;6.30;1.93;;;3.40;99.90;;;;;;4994760;28;20165;-70
2022/02/24 06:16:25;;;;;;;2.13;1.50;;;3.50;99.90;;;;;;4995004;28;20219;-71
2022/02/24 06:18:51;;;;;;;5.17;2.60;;;3.50;99.90;;;;;;4995061;28;20197;-70
2022/02/24 06:21:17;;;;;;;2.10;1.83;;;3.60;99.90;;;;;;4994873;28;20208;-70
2022/02/24 06:23:43;;;;;;;2.70;2.07;;;3.60;99.90;;;;;;4994844;28;20169;-70
2022/02/24 06:26:08;;;;;;;5.43;1.60;;;3.60;99.90;;;;;;4994970;28;20177;-71
2022/02/24 06:28:34;;;;;;;2.20;1.10;;;3.60;99.90;;;;;;4977691;28;20541;-71
2022/02/24 06:30:59;;;;;;;1.53;1.20;;;3.70;99.90;;;;;;4994989;28;20535;-72
2022/02/24 06:33:25;;;;;;;1.10;1.00;;;3.70;99.90;;;;;;4994676;28;20173;-70
2022/02/24 06:35:50;;;;;;;1.57;1.47;;;3.70;99.90;;;;;;4994385;28;20165;-69
2022/02/24 06:38:16;;;;;;;1.77;1.37;;;3.70;99.90;;;;;;4994501;28;20173;-72
2022/02/24 06:40:41;;;;;;;2.07;1.60;;;3.70;99.90;;;;;;5003965;23;20565;-67
2022/02/24 06:43:07;;;;;;;4.40;1.93;;;3.80;99.90;;;;;;5013125;28;20199;-67
2022/02/24 06:45:33;;;;;;;1.37;1.27;;;3.80;99.90;;;;;;5012097;28;20196;-67
2022/02/24 06:47:59;;;;;;;6.00;1.80;;;3.80;99.90;;;;;;5014104;28;20195;-68
2022/02/24 06:50:24;;;;;;;1.43;1.10;;;3.80;99.90;;;;;;5014007;28;20415;-67
2022/02/24 06:52:50;;;;;;;3.53;2.00;;;3.80;99.90;;;;;;5013611;28;20208;-67
2022/02/24 06:55:15;;;;;;;1.33;0.90;;;3.80;99.90;;;;;;5012998;28;20203;-67
2022/02/24 06:57:47;;;;;;;4.40;2.20;;;3.80;99.90;;;;;;5013084;28;20173;-67
2022/02/24 07:00:14;;;;;;;1.07;1.07;;;3.90;99.90;;;;;;5012623;28;20194;-67
2022/02/24 07:02:40;;;;;;;2.23;1.50;;;3.90;99.90;;;;;;5012733;28;20418;-68
2022/02/24 07:05:06;;;;;;;1.63;1.30;;;3.90;99.90;;;;;;5012805;28;20407;-68
2022/02/24 07:07:34;;;;;;;6.30;1.50;;;4.00;99.90;;;;;;5012872;28;20176;-68
2022/02/24 07:10:04;;;;;;;1.40;1.30;;;4.10;99.90;;;;;;5012739;28;20451;-68
2022/02/24 07:12:30;;;;;;;1.80;1.70;;;4.10;99.90;;;;;;5012619;28;20533;-68
2022/02/24 07:14:57;;;;;;;3.20;1.70;;;4.20;99.90;;;;;;5012629;28;20506;-68
2022/02/24 07:17:22;;;;;;;5.37;1.47;;;4.10;99.90;;;;;;5012960;28;20415;-68
2022/02/24 07:19:48;;;;;;;2.23;2.03;;;4.20;99.90;;;;;;5012655;28;20951;-68
2022/02/24 07:22:13;;;;;;;4.30;1.63;;;4.20;99.90;;;;;;5013340;28;20542;-68
2022/02/24 07:24:40;;;;;;;3.13;1.93;;;4.60;99.90;;;;;;5012367;28;20175;-68
2022/02/24 07:27:05;;;;;;;3.30;2.63;;;4.60;99.90;;;;;;5012595;28;20559;-68
2022/02/24 07:29:30;;;;;;;1.63;1.17;;;4.50;99.90;;;;;;5012371;28;20427;-68
2022/02/24 07:31:56;;;;;;;3.77;1.77;;;4.50;99.90;;;;;;5012297;28;20678;-68
2022/02/24 07:34:21;;;;;;;2.07;1.50;;;4.50;99.90;;;;;;5012638;28;20164;-68
2022/02/24 07:36:49;;;;;;;3.10;1.10;;;4.40;99.90;;;;;;5012411;28;20223;-68
2022/02/24 07:39:15;;;;;;;1.97;1.87;;;4.50;99.90;;;;;;5012866;28;20200;-68
2022/02/24 07:41:41;;;;;;;4.33;2.03;;;4.50;99.90;;;;;;5012678;28;20422;-68
2022/02/24 07:44:07;;;;;;;1.30;1.20;;;4.50;99.90;;;;;;5012692;28;20415;-68
2022/02/24 07:46:33;;;;;;;1.80;1.27;;;4.60;99.90;;;;;;5012418;28;20399;-68
2022/02/24 07:48:59;;;;;;;1.60;1.10;;;4.60;99.90;;;;;;5012004;28;20652;-68
2022/02/24 07:51:24;;;;;;;1.20;1.07;;;4.60;99.90;;;;;;5012413;28;20581;-71
2022/02/24 07:53:50;;;;;;;1.63;1.53;;;4.70;99.90;;;;;;5012456;28;20631;-70
2022/02/24 07:56:16;;;;;;;3.17;1.37;;;4.70;99.90;;;;;;5011969;28;20191;-68
2022/02/24 07:58:41;;;;;;;1.13;1.03;;;4.80;99.90;;;;;;5011623;28;20196;-68
2022/02/24 08:01:07;;;;;;;1.30;1.20;;;4.80;99.90;;;;;;5012317;28;20488;-68
2022/02/24 08:03:33;;;;;;;1.80;1.40;;;4.90;99.90;;;;;;5012104;28;20175;-68
2022/02/24 08:06:00;;;;;;;2.57;1.50;;;5.00;99.90;;;;;;5012209;28;20172;-68
2022/02/24 08:08:26;;;;;;;14.13;2.10;;;5.10;99.90;;;;;;5011984;28;20486;-68
2022/02/24 08:10:53;;;;;;;1.47;1.10;;;5.20;99.90;;;;;;5011828;28;20992;-68
2022/02/24 08:13:18;;;;;;;1.20;1.07;;;5.30;99.90;;;;;;5011781;28;20419;-68
2022/02/24 08:15:44;;;;;;;1.70;1.60;;;5.40;99.90;;;;;;5011859;28;20898;-68
2022/02/24 08:18:09;;;;;;;1.33;1.20;;;5.50;99.90;;;;;;5012206;28;20227;-68
2022/02/24 08:20:37;;;;;;;2.30;1.17;;;5.70;99.90;;;;;;5011909;28;20203;-67
2022/02/24 08:23:04;;;;;;;1.60;1.50;;;5.80;99.90;;;;;;5009670;28;20195;-67
2022/02/24 08:25:31;;;;;;;1.63;1.30;;;5.80;99.90;;;;;;5011558;28;20439;-69
2022/02/24 08:27:56;;;;;;;2.30;2.10;;;5.90;99.90;;;;;;5011809;28;20473;-68
2022/02/24 08:30:22;;;;;;;4.43;1.60;;;6.10;99.90;;;;;;5012245;28;20439;-67
2022/02/24 08:32:49;;;;;;;3.03;1.73;;;6.30;99.90;;;;;;5010711;28;20204;-68
2022/02/24 08:35:16;;;;;;;1.60;1.50;;;6.40;99.90;;;;;;5011601;28;20222;-67
2022/02/24 08:37:49;;;;;;;1.33;0.90;;;6.40;99.90;;;;;;5011469;28;20447;-67
2022/02/24 08:40:18;;;;;;;1.60;1.47;;;6.70;99.90;;;;;;5011311;28;20458;-67
2022/02/24 08:42:44;;;;;;;1.10;1.10;;;6.50;99.90;;;;;;5011544;28;20494;-67
2022/02/24 08:45:13;;;;;;;2.03;1.47;;;6.60;99.90;;;;;;5011630;28;20846;-67
2022/02/24 08:47:40;;;;;;;2.07;1.20;;;6.50;99.90;;;;;;5011544;28;20988;-67
2022/02/24 08:50:06;;;;;;;2.50;1.77;;;6.40;99.90;;;;;;5011533;28;20431;-67
2022/02/24 08:52:32;;;;;;;2.90;1.50;;;6.40;99.90;;;;;;5011340;28;20459;-67
2022/02/24 08:54:57;;;;;;;4.37;1.87;;;6.40;99.90;;;;;;5011319;28;20408;-69
2022/02/24 08:57:23;;;;;;;1.70;1.60;;;6.60;99.90;;;;;;5011511;28;20220;-70
2022/02/24 08:59:48;;;;;;;1.70;1.43;;;6.90;99.90;;;;;;5011267;28;20223;-69
2022/02/24 09:02:14;;;;;;;0.87;0.87;;;7.00;99.90;;;;;;5011592;28;20172;-70
2022/02/24 09:04:39;;;;;;;1.30;0.90;;;7.40;99.90;;;;;;5011134;28;20724;-67
2022/02/24 09:07:05;;;;;;;5.90;1.63;;;7.40;99.90;;;;;;5011309;28;20173;-67
2022/02/24 09:09:31;;;;;;;1.63;1.53;;;7.30;99.90;;;;;;5012868;28;20192;-67
2022/02/24 09:11:56;;;;;;;3.40;1.43;;;7.50;99.90;;;;;;5014933;28;20200;-67
2022/02/24 09:14:22;;;;;;;6.20;1.93;;;7.90;99.90;;;;;;5015004;28;20706;-67
2022/02/24 09:16:47;;;;;;;2.20;1.20;;;8.00;99.90;;;;;;5014851;28;20184;-68
2022/02/24 09:19:13;;;;;;;1.97;1.50;;;7.80;99.90;;;;;;5014777;28;20192;-68
2022/02/24 09:21:39;;;;;;;1.13;1.03;;;7.90;99.90;;;;;;5014851;28;20200;-68
2022/02/24 09:24:05;;;;;;;2.63;1.40;;;7.90;99.90;;;;;;5014404;28;20577;-68
2022/02/24 09:26:31;;;;;;;1.40;1.10;;;8.00;99.90;;;;;;5014860;28;20436;-68
2022/02/24 09:28:56;;;;;;;1.47;1.37;;;8.00;99.90;;;;;;5014366;28;20830;-65
2022/02/24 09:31:23;;;;;;;3.43;1.63;;;7.90;99.90;;;;;;5014327;28;20217;-68
2022/02/24 09:33:49;;;;;;;1.33;1.20;;;7.90;99.90;;;;;;5014284;28;20424;-68
2022/02/24 09:36:14;;;;;;;1.73;1.30;;;7.90;99.90;;;;;;5014346;28;20214;-68
2022/02/24 09:38:40;;;;;;;1.30;1.20;;;8.00;99.90;;;;;;5014401;28;20170;-68
2022/02/24 09:41:08;;;;;;;1.30;1.20;;;8.20;99.90;;;;;;5014434;28;20251;-68
2022/02/24 09:43:36;;;;;;;1.20;1.10;;;8.20;99.90;;;;;;5014764;28;20438;-68
2022/02/24 09:46:05;;;;;;;3.30;1.40;;;8.30;99.90;;;;;;5014472;28;20443;-68
2022/02/24 09:48:33;;;;;;;1.40;1.20;;;8.40;99.90;;;;;;5014367;28;20487;-68
2022/02/24 09:51:00;;;;;;;2.20;1.90;;;8.70;99.90;;;;;;5014129;28;20442;-68
2022/02/24 09:53:27;;;;;;;1.90;1.30;;;8.50;99.90;;;;;;5014382;28;20419;-68
2022/02/24 09:55:54;;;;;;;1.70;1.37;;;8.60;99.90;;;;;;5014056;28;20419;-68
2022/02/24 09:58:21;;;;;;;2.03;1.10;;;8.80;99.90;;;;;;5014161;28;20426;-68
2022/02/24 10:00:48;;;;;;;2.13;1.27;;;8.80;99.90;;;;;;5014058;28;20925;-68
2022/02/24 10:03:37;;;;;;;9.20;1.40;;;8.60;99.90;;;;;;5014092;28;20930;-68
2022/02/24 10:06:04;;;;;;;2.50;1.80;;;8.60;99.90;;;;;;5014135;28;20406;-68
2022/02/24 10:08:42;;;;;;;1.50;1.40;;;8.60;99.90;;;;;;5013843;28;20891;-67
2022/02/24 10:11:20;;;;;;;1.17;1.07;;;8.80;99.90;;;;;;5013717;28;20408;-66
2022/02/24 10:14:05;;;;;;;1.47;1.10;;;8.70;99.90;;;;;;5013333;28;20419;-66
2022/02/24 10:16:48;;;;;;;2.10;1.63;;;8.70;99.90;;;;;;5013608;28;20412;-67
2022/02/24 10:19:14;;;;;;;5.13;1.80;;;8.70;99.90;;;;;;5013786;28;20918;-67
2022/02/24 10:21:42;;;;;;;1.20;1.10;;;8.70;99.90;;;;;;5013319;28;20454;-67
2022/02/24 10:24:23;;;;;;;2.90;1.20;;;8.50;99.90;;;;;;5013458;28;20188;-67
2022/02/24 10:26:49;;;;;;;1.53;1.40;;;8.70;99.90;;;;;;5013759;28;20447;-67
2022/02/24 10:29:14;;;;;;;3.53;2.03;;;8.90;99.90;;;;;;5013583;28;20462;-67
2022/02/24 10:31:41;;;;;;;4.40;2.17;;;8.80;99.90;;;;;;4995004;28;20224;-67
2022/02/24 10:34:15;;;;;;;1.27;1.17;;;8.80;99.90;;;;;;5013585;28;20189;-67
2022/02/24 10:36:41;;;;;;;2.20;2.00;;;8.90;99.90;;;;;;5013754;28;20411;-67
2022/02/24 10:39:17;;;;;;;2.33;1.70;;;8.90;99.90;;;;;;5013740;28;20443;-67
2022/02/24 10:41:47;;;;;;;3.53;1.50;;;8.80;99.90;;;;;;4996661;28;20636;-67
2022/02/24 10:44:21;;;;;;;10.00;1.37;;;8.80;99.90;;;;;;5014473;28;20418;-67
2022/02/24 10:46:50;;;;;;;1.40;1.00;;;8.90;99.90;;;;;;5013389;28;20434;-67
2022/02/24 10:49:39;;;;;;;1.40;1.20;;;9.00;99.90;;;;;;5013251;28;20431;-67
2022/02/24 10:52:19;;;;;;;2.80;1.57;;;9.00;99.90;;;;;;5013830;28;20455;-67
2022/02/24 10:55:07;;;;;;;1.53;1.20;;;9.20;99.90;;;;;;5013219;28;20440;-67
2022/02/24 10:57:32;;;;;;;5.90;1.70;;;9.50;99.90;;;;;;5013515;28;20413;-68
2022/02/24 10:59:58;;;;;;;1.53;1.43;;;9.60;99.90;;;;;;5013365;28;21102;-68
2022/02/24 11:02:26;;;;;;;2.20;1.30;;;9.70;99.90;;;;;;5013262;28;20213;-68
2022/02/24 11:04:52;;;;;;;1.30;1.10;;;9.50;99.90;;;;;;5013135;28;20420;-68
2022/02/24 11:07:18;;;;;;;1.87;1.30;;;9.60;99.90;;;;;;5013399;28;20956;-69
2022/02/24 11:09:44;;;;;;;5.13;1.13;;;9.70;99.90;;;;;;5012881;28;20419;-68
2022/02/24 11:12:13;;;;;;;1.60;1.20;;;9.50;99.90;;;;;;5012026;28;20812;-68
2022/02/24 11:14:40;;;;;;;2.70;1.53;;;9.50;99.90;;;;;;5012517;28;20444;-69
2022/02/24 11:17:09;;;;;;;1.73;1.50;;;9.20;99.90;;;;;;5012664;28;20497;-67
2022/02/24 11:19:37;;;;;;;2.10;2.00;;;9.30;99.90;;;;;;5012694;28;20466;-67
2022/02/24 11:22:03;;;;;;;1.37;1.20;;;9.10;99.90;;;;;;5012529;28;20422;-67
2022/02/24 11:24:29;;;;;;;1.93;1.53;;;9.20;99.90;;;;;;5012403;28;20416;-67
2022/02/24 11:27:09;;;;;;;1.60;1.50;;;9.10;99.90;;;;;;5012113;28;20438;-67
2022/02/24 11:29:53;;;;;;;5.70;2.23;;;9.10;99.90;;;;;;5012375;28;20229;-67
2022/02/24 11:32:23;;;;;;;1.30;1.20;;;9.30;99.90;;;;;;5011633;28;20459;-67
2022/02/24 11:35:13;;;;;;;5.43;1.40;;;9.20;99.90;;;;;;5012328;28;20408;-67
2022/02/24 11:37:47;;;;;;;1.33;1.20;;;9.40;99.90;;;;;;5012338;28;20489;-67
2022/02/24 11:40:25;;;;;;;1.90;1.70;;;9.40;99.90;;;;;;5012426;28;20446;-67
2022/02/24 11:43:23;;;;;;;2.20;1.43;;;9.40;99.90;;;;;;5012680;28;20893;-68
2022/02/24 11:45:56;;;;;;;2.67;1.37;;;9.50;99.90;;;;;;5012595;28;20406;-68
2022/02/24 11:48:24;;;;;;;2.60;1.43;;;9.40;99.90;;;;;;5012776;28;20412;-67
2022/02/24 11:50:55;;;;;;;1.57;1.47;;;9.40;99.90;;;;;;5012186;28;20458;-67
2022/02/24 11:53:26;;;;;;;1.67;1.50;;;9.30;99.90;;;;;;5012259;28;20498;-67
2022/02/24 11:56:11;;;;;;;4.70;1.20;;;9.40;99.90;;;;;;5012151;28;20935;-67
2022/02/24 11:58:59;;;;;;;1.73;1.40;;;9.50;99.90;;;;;;5012494;28;20484;-67
2022/02/24 12:01:29;;;;;;;4.00;1.83;;;9.50;99.90;;;;;;5012399;28;20431;-67
2022/02/24 12:04:03;;;;;;;1.53;1.30;;;9.40;99.90;;;;;;5011934;28;20404;-67
2022/02/24 12:06:37;;;;;;;3.03;1.73;;;9.40;99.90;;;;;;5011877;28;20400;-67
2022/02/24 12:09:02;;;;;;;2.20;1.27;;;9.40;99.90;;;;;;5012158;28;20428;-67
2022/02/24 12:11:30;;;;;;;1.63;1.37;;;9.40;99.90;;;;;;4994295;28;20463;-67
2022/02/24 12:13:55;;;;;;;2.00;1.90;;;9.30;99.90;;;;;;5012188;28;20173;-67
2022/02/24 12:16:24;;;;;;;1.40;1.30;;;9.30;99.90;;;;;;5012047;28;20908;-66
2022/02/24 12:18:55;;;;;;;2.50;1.30;;;9.40;99.90;;;;;;5012002;28;20251;-67
2022/02/24 12:21:34;;;;;;;3.40;2.03;;;9.60;99.90;;;;;;5012408;28;20458;-67
2022/02/24 12:24:04;;;;;;;3.83;1.80;;;9.50;99.90;;;;;;5011980;28;20415;-67
2022/02/24 12:26:58;;;;;;;3.27;2.70;;;9.50;99.90;;;;;;5011985;28;20476;-67
2022/02/24 12:29:30;;;;;;;2.33;1.90;;;9.50;99.90;;;;;;5009441;28;20991;-67
2022/02/24 12:32:01;;;;;;;2.07;1.40;;;9.60;99.90;;;;;;4994488;28;20534;-67
2022/02/24 12:34:28;;;;;;;1.57;1.20;;;9.50;99.90;;;;;;5011814;28;20416;-67
2022/02/24 12:37:09;;;;;;;1.07;0.97;;;9.50;99.90;;;;;;5011986;28;20522;-67
2022/02/24 12:39:36;;;;;;;2.40;1.80;;;9.50;99.90;;;;;;5012201;28;20447;-68
2022/02/24 12:42:03;;;;;;;3.93;2.00;;;9.50;99.90;;;;;;5011475;28;20414;-68
2022/02/24 12:44:31;;;;;;;9.43;3.90;;;9.50;99.90;;;;;;5015331;28;20433;-68
2022/02/24 12:46:57;;;;;;;3.10;1.40;;;9.60;99.90;;;;;;5016281;28;20414;-67
2022/02/24 12:49:22;;;;;;;2.83;1.30;;;9.50;99.90;;;;;;5015692;28;20788;-68
2022/02/24 12:51:48;;;;;;;2.77;1.40;;;9.60;99.90;;;;;;5015538;28;20446;-67
2022/02/24 12:54:15;;;;;;;2.20;1.30;;;9.60;99.90;;;;;;5015348;28;20197;-67
2022/02/24 12:56:41;;;;;;;2.07;1.70;;;9.60;99.90;;;;;;5015283;28;20169;-66
2022/02/24 12:59:08;;;;;;;2.47;1.63;;;9.60;99.90;;;;;;5015209;28;20528;-67